createdAt,value
2018-12-21T00:00:03.310Z,79.07
2018-12-21T00:01:03.213Z,76.78
2018-12-21T00:02:03.226Z,77.70
2018-12-21T00:03:03.256Z,78.68
2018-12-21T00:04:03.181Z,79.56
2018-12-21T00:05:03.223Z,79.46
2018-12-21T00:06:03.586Z,80.65
2018-12-21T00:07:03.159Z,80.23
2018-12-21T00:08:03.153Z,79.46
2018-12-21T00:09:03.181Z,76.50
2018-12-21T00:10:03.154Z,76.08
2018-12-21T00:11:03.588Z,76.72
2018-12-21T00:12:03.103Z,75.98
2018-12-21T00:13:03.113Z,74.04
2018-12-21T00:14:03.089Z,74.99
2018-12-21T00:15:03.116Z,77.24
2018-12-21T00:16:03.147Z,77.77
2018-12-21T00:17:03.591Z,77.59
2018-12-21T00:18:03.047Z,77.38
2018-12-21T00:19:03.041Z,77.48
2018-12-21T00:20:03.048Z,77.91
2018-12-21T00:21:03.044Z,78.12
2018-12-21T00:22:03.059Z,77.17
2018-12-21T00:23:03.010Z,76.40
2018-12-21T00:24:02.979Z,76.92
2018-12-21T00:25:03.000Z,76.82
2018-12-21T00:26:03.007Z,77.34
2018-12-21T00:27:03.113Z,77.34
2018-12-21T00:28:02.944Z,78.08
2018-12-21T00:29:02.974Z,76.92
2018-12-21T00:30:02.955Z,76.92
2018-12-21T00:31:02.931Z,76.82
2018-12-21T00:32:02.978Z,76.72
2018-12-21T00:33:03.091Z,76.82
2018-12-21T00:34:02.928Z,77.34
2018-12-21T00:35:02.885Z,77.77
2018-12-21T00:36:02.862Z,79.17
2018-12-21T00:37:02.840Z,79.28
2018-12-21T00:38:02.957Z,78.75
2018-12-21T00:39:02.884Z,79.35
2018-12-21T00:40:02.819Z,79.17
2018-12-21T00:41:02.811Z,77.48
2018-12-21T00:42:02.800Z,77.17
2018-12-21T00:43:02.853Z,78.44
2018-12-21T00:44:02.803Z,78.86
2018-12-21T00:45:02.804Z,79.00
2018-12-21T00:46:02.767Z,79.17
2018-12-21T00:47:02.740Z,79.60
2018-12-21T00:48:02.794Z,79.85
2018-12-21T00:49:02.773Z,79.91
2018-12-21T00:50:02.730Z,79.60
2018-12-21T00:51:02.733Z,80.13
2018-12-21T00:52:02.702Z,80.13
2018-12-21T00:53:02.879Z,79.81
2018-12-21T00:54:02.679Z,77.14
2018-12-21T00:55:02.704Z,77.45
2018-12-21T00:56:02.661Z,78.02
2018-12-21T00:57:02.664Z,79.17
2018-12-21T00:58:02.719Z,79.49
2018-12-21T00:59:02.621Z,79.60
2018-12-21T01:00:02.654Z,79.91
2018-12-21T01:01:02.605Z,79.81
2018-12-21T01:02:02.597Z,79.46
2018-12-21T01:03:02.653Z,79.28
2018-12-21T01:04:02.643Z,78.82
2018-12-21T01:05:02.561Z,78.08
2018-12-21T01:06:02.600Z,77.66
2018-12-21T01:07:02.555Z,77.45
2018-12-21T01:08:02.520Z,77.45
2018-12-21T01:09:02.578Z,77.34
2018-12-21T01:10:02.511Z,77.14
2018-12-21T01:11:03.529Z,77.56
2018-12-21T01:12:02.488Z,77.56
2018-12-21T01:13:02.475Z,77.56
2018-12-21T01:14:02.520Z,76.36
2018-12-21T01:15:02.492Z,76.89
2018-12-21T01:16:02.473Z,76.57
2018-12-21T01:17:02.434Z,74.26
2018-12-21T01:18:02.422Z,75.52
2018-12-21T01:19:02.469Z,74.68
2018-12-21T01:20:02.582Z,76.04
2018-12-21T01:21:02.401Z,74.88
2018-12-21T01:22:02.404Z,75.24
2018-12-21T01:23:02.375Z,75.37
2018-12-21T01:24:02.376Z,75.48
2018-12-21T01:25:02.430Z,76.75
2018-12-21T01:26:02.382Z,78.02
2018-12-21T01:27:02.337Z,78.86
2018-12-21T01:28:02.319Z,78.44
2018-12-21T01:29:02.322Z,76.92
2018-12-21T01:30:02.386Z,77.03
2018-12-21T01:31:02.293Z,77.24
2018-12-21T01:32:02.310Z,77.34
2018-12-21T01:33:02.279Z,77.48
2018-12-21T01:34:02.261Z,77.45
2018-12-21T01:35:02.335Z,77.45
2018-12-21T01:36:02.263Z,77.56
2018-12-21T01:37:02.234Z,77.14
2018-12-21T01:38:02.262Z,77.45
2018-12-21T01:39:02.259Z,77.42
2018-12-21T01:40:02.293Z,77.56
2018-12-21T01:41:02.562Z,77.42
2018-12-21T01:42:03.178Z,76.68
2018-12-21T01:43:02.187Z,76.04
2018-12-21T01:44:02.169Z,75.84
2018-12-21T01:45:02.215Z,75.06
2018-12-21T01:46:02.192Z,75.38
2018-12-21T01:47:02.524Z,75.48
2018-12-21T01:48:02.141Z,75.90
2018-12-21T01:49:03.108Z,75.84
2018-12-21T01:50:02.098Z,76.86
2018-12-21T01:51:02.129Z,77.00
2018-12-21T01:52:02.207Z,76.46
2018-12-21T01:53:02.085Z,77.31
2018-12-21T01:54:02.056Z,74.81
2018-12-21T01:55:02.040Z,75.13
2018-12-21T01:56:02.116Z,75.45
2018-12-21T01:57:02.037Z,75.66
2018-12-21T01:58:02.111Z,74.81
2018-12-21T01:59:02.025Z,73.44
2018-12-21T02:00:02.054Z,72.07
2018-12-21T02:01:01.985Z,73.55
2018-12-21T02:02:01.995Z,73.33
2018-12-21T02:03:03.023Z,73.86
2018-12-21T02:04:02.020Z,74.81
2018-12-21T02:05:01.965Z,75.80
2018-12-21T02:06:01.954Z,75.27
2018-12-21T02:07:01.959Z,74.53
2018-12-21T02:08:01.983Z,75.06
2018-12-21T02:09:02.019Z,74.43
2018-12-21T02:10:01.886Z,74.95
2018-12-21T02:11:01.882Z,74.32
2018-12-21T02:12:01.915Z,74.21
2018-12-21T02:13:01.857Z,75.06
2018-12-21T02:14:01.919Z,74.95
2018-12-21T02:15:01.855Z,72.81
2018-12-21T02:16:01.821Z,73.44
2018-12-21T02:17:01.817Z,74.21
2018-12-21T02:18:01.897Z,73.65
2018-12-21T02:19:02.005Z,71.65
2018-12-21T02:20:01.803Z,70.35
2018-12-21T02:21:01.774Z,69.29
2018-12-21T02:22:01.803Z,68.21
2018-12-21T02:23:01.755Z,69.16
2018-12-21T02:24:01.851Z,70.00
2018-12-21T02:25:01.737Z,70.67
2018-12-21T02:26:01.731Z,72.04
2018-12-21T02:27:01.769Z,73.02
2018-12-21T02:28:01.758Z,73.65
2018-12-21T02:29:01.772Z,73.97
2018-12-21T02:30:01.712Z,73.97
2018-12-21T02:31:01.723Z,73.86
2018-12-21T02:32:01.707Z,73.76
2018-12-21T02:33:01.666Z,74.29
2018-12-21T02:34:01.679Z,75.24
2018-12-21T02:35:01.631Z,75.02
2018-12-21T02:36:01.672Z,75.02
2018-12-21T02:37:01.683Z,75.66
2018-12-21T02:38:01.599Z,75.66
2018-12-21T02:39:01.632Z,75.37
2018-12-21T02:40:01.644Z,75.02
2018-12-21T02:41:01.578Z,75.02
2018-12-21T02:42:01.563Z,75.02
2018-12-21T02:43:01.553Z,74.07
2018-12-21T02:44:01.566Z,74.07
2018-12-21T02:45:01.642Z,74.50
2018-12-21T02:46:02.001Z,75.02
2018-12-21T02:47:01.531Z,75.45
2018-12-21T02:48:01.503Z,74.81
2018-12-21T02:49:01.559Z,75.45
2018-12-21T02:50:02.036Z,74.39
2018-12-21T02:51:01.531Z,74.07
2018-12-21T02:52:05.717Z,73.52
2018-12-21T02:53:01.460Z,72.99
2018-12-21T02:54:01.436Z,72.99
2018-12-21T02:55:01.439Z,72.67
2018-12-21T02:56:01.482Z,73.41
2018-12-21T02:57:01.471Z,73.62
2018-12-21T02:58:01.416Z,72.32
2018-12-21T02:59:01.400Z,73.06
2018-12-21T03:00:01.375Z,72.74
2018-12-21T03:01:01.430Z,73.69
2018-12-21T03:02:01.369Z,73.90
2018-12-21T03:03:01.381Z,73.90
2018-12-21T03:04:01.349Z,74.22
2018-12-21T03:05:01.365Z,74.11
2018-12-21T03:06:01.486Z,73.48
2018-12-21T03:07:01.492Z,72.64
2018-12-21T03:08:01.329Z,72.92
2018-12-21T03:09:01.283Z,72.00
2018-12-21T03:10:01.333Z,71.37
2018-12-21T03:11:01.311Z,71.90
2018-12-21T03:12:01.253Z,72.85
2018-12-21T03:13:01.248Z,73.58
2018-12-21T03:14:01.247Z,74.22
2018-12-21T03:15:01.273Z,75.10
2018-12-21T03:16:01.303Z,75.73
2018-12-21T03:17:01.200Z,75.94
2018-12-21T03:18:01.208Z,77.00
2018-12-21T03:19:01.181Z,76.78
2018-12-21T03:20:01.178Z,76.01
2018-12-21T03:21:01.250Z,74.85
2018-12-21T03:22:01.488Z,74.01
2018-12-21T03:23:01.139Z,72.81
2018-12-21T03:24:01.129Z,73.03
2018-12-21T03:25:01.136Z,72.81
2018-12-21T03:26:01.127Z,72.92
2018-12-21T03:27:01.187Z,72.67
2018-12-21T03:28:01.088Z,72.99
2018-12-21T03:29:01.080Z,73.34
2018-12-21T03:30:01.095Z,74.19
2018-12-21T03:31:01.064Z,73.76
2018-12-21T03:32:01.170Z,74.08
2018-12-21T03:33:01.078Z,74.40
2018-12-21T03:34:01.058Z,75.06
2018-12-21T03:35:01.049Z,75.24
2018-12-21T03:36:01.009Z,74.74
2018-12-21T03:37:01.068Z,74.29
2018-12-21T03:38:01.004Z,75.16
2018-12-21T03:39:01.025Z,74.19
2018-12-21T03:40:00.967Z,74.32
2018-12-21T03:41:00.954Z,75.48
2018-12-21T03:42:00.997Z,76.01
2018-12-21T03:43:00.929Z,74.96
2018-12-21T03:44:00.941Z,75.38
2018-12-21T03:45:00.940Z,75.38
2018-12-21T03:46:00.915Z,72.85
2018-12-21T03:47:00.974Z,71.37
2018-12-21T03:48:00.878Z,72.32
2018-12-21T03:49:00.867Z,71.48
2018-12-21T03:50:00.868Z,70.32
2018-12-21T03:51:00.894Z,69.68
2018-12-21T03:52:00.912Z,70.53
2018-12-21T03:53:00.968Z,69.76
2018-12-21T03:54:00.870Z,67.76
2018-12-21T03:55:00.843Z,68.29
2018-12-21T03:56:00.794Z,69.90
2018-12-21T03:57:00.785Z,71.48
2018-12-21T03:58:00.792Z,69.26
2018-12-21T03:59:00.914Z,66.74
2018-12-21T04:00:00.760Z,66.17
2018-12-21T04:01:00.796Z,65.86
2018-12-21T04:02:00.727Z,64.49
2018-12-21T04:03:00.762Z,65.01
2018-12-21T04:04:00.788Z,65.65
2018-12-21T04:05:00.701Z,67.36
2018-12-21T04:06:00.691Z,66.74
2018-12-21T04:07:00.719Z,68.10
2018-12-21T04:08:00.807Z,70.10
2018-12-21T04:09:00.719Z,69.06
2018-12-21T04:10:00.666Z,67.47
2018-12-21T04:11:00.650Z,67.90
2018-12-21T04:12:00.714Z,67.79
2018-12-21T04:13:00.619Z,69.29
2018-12-21T04:14:00.674Z,70.56
2018-12-21T04:15:00.605Z,71.72
2018-12-21T04:16:00.590Z,73.09
2018-12-21T04:17:00.623Z,72.46
2018-12-21T04:18:00.564Z,71.51
2018-12-21T04:19:00.616Z,71.09
2018-12-21T04:20:00.560Z,71.09
2018-12-21T04:21:00.543Z,70.88
2018-12-21T04:22:00.535Z,71.19
2018-12-21T04:23:00.573Z,71.72
2018-12-21T04:24:00.573Z,71.93
2018-12-21T04:25:00.555Z,72.35
2018-12-21T04:26:00.551Z,72.46
2018-12-21T04:27:00.991Z,71.83
2018-12-21T04:28:00.541Z,72.39
2018-12-21T04:29:00.515Z,72.04
2018-12-21T04:30:00.457Z,71.30
2018-12-21T04:31:00.449Z,70.98
2018-12-21T04:32:00.430Z,70.98
2018-12-21T04:33:00.486Z,71.19
2018-12-21T04:34:00.412Z,71.72
2018-12-21T04:35:00.434Z,67.93
2018-12-21T04:36:00.412Z,68.00
2018-12-21T04:37:00.415Z,70.14
2018-12-21T04:38:00.433Z,71.19
2018-12-21T04:39:00.361Z,72.04
2018-12-21T04:40:00.563Z,72.67
2018-12-21T04:41:00.352Z,72.81
2018-12-21T04:42:00.365Z,72.88
2018-12-21T04:43:00.429Z,73.52
2018-12-21T04:44:00.309Z,71.83
2018-12-21T04:45:00.299Z,71.41
2018-12-21T04:46:00.287Z,71.93
2018-12-21T04:47:00.281Z,72.35
2018-12-21T04:48:01.417Z,72.14
2018-12-21T04:49:00.439Z,71.83
2018-12-21T04:50:00.256Z,71.75
2018-12-21T04:51:00.227Z,71.83
2018-12-21T04:52:01.231Z,72.35
2018-12-21T04:53:00.283Z,72.46
2018-12-21T04:54:00.481Z,71.09
2018-12-21T04:55:00.200Z,70.98
2018-12-21T04:56:01.890Z,70.98
2018-12-21T04:57:00.161Z,71.51
2018-12-21T04:58:00.339Z,71.93
2018-12-21T04:59:00.448Z,72.35
2018-12-21T05:00:00.170Z,72.67
2018-12-21T05:01:00.121Z,72.78
2018-12-21T05:02:00.127Z,72.78
2018-12-21T05:03:00.120Z,71.61
2018-12-21T05:04:00.139Z,71.19
2018-12-21T05:05:00.439Z,70.53
2018-12-21T05:06:00.116Z,71.06
2018-12-21T05:07:00.061Z,69.16
2018-12-21T05:08:00.073Z,69.97
2018-12-21T05:09:00.036Z,69.87
2018-12-21T05:10:00.128Z,69.13
2018-12-21T05:11:09.642Z,69.87
2018-12-21T05:12:00.013Z,69.97
2018-12-21T05:13:00.014Z,70.81
2018-12-21T05:13:59.984Z,71.23
2018-12-21T05:15:12.052Z,70.74
2018-12-21T05:15:59.982Z,70.64
2018-12-21T05:17:01.036Z,70.39
2018-12-21T05:18:10.600Z,70.07
2018-12-21T05:19:17.744Z,69.45
2018-12-21T05:20:00.921Z,69.76
2018-12-21T05:21:08.491Z,69.87
2018-12-21T05:21:59.909Z,68.68
2018-12-21T05:23:00.983Z,70.04
2018-12-21T05:24:09.348Z,69.10
2018-12-21T05:25:01.979Z,69.10
2018-12-21T05:25:59.897Z,69.45
2018-12-21T05:26:59.870Z,69.73
2018-12-21T05:27:59.857Z,70.04
2018-12-21T05:29:00.987Z,70.67
2018-12-21T05:30:00.068Z,70.92
2018-12-21T05:31:00.206Z,69.65
2018-12-21T05:31:59.944Z,68.49
2018-12-21T05:33:07.895Z,69.83
2018-12-21T05:33:59.816Z,69.52
2018-12-21T05:35:00.845Z,67.72
2018-12-21T05:36:00.754Z,65.52
2018-12-21T05:36:59.891Z,66.36
2018-12-21T05:37:59.749Z,68.15
2018-12-21T05:39:00.046Z,70.47
2018-12-21T05:39:59.799Z,70.99
2018-12-21T05:40:59.831Z,70.81
2018-12-21T05:41:59.739Z,71.13
2018-12-21T05:42:59.774Z,70.67
2018-12-21T05:44:00.026Z,70.71
2018-12-21T05:44:59.815Z,71.31
2018-12-21T05:45:59.872Z,71.10
2018-12-21T05:46:59.765Z,71.23
2018-12-21T05:47:59.732Z,71.31
2018-12-21T05:49:00.993Z,70.89
2018-12-21T05:49:59.999Z,71.20
2018-12-21T05:50:59.704Z,71.73
2018-12-21T05:51:59.756Z,71.41
2018-12-21T05:53:00.913Z,70.89
2018-12-21T05:53:59.633Z,68.36
2018-12-21T05:54:59.722Z,67.91
2018-12-21T05:55:59.692Z,67.69
2018-12-21T05:56:59.661Z,67.27
2018-12-21T05:58:00.204Z,66.82
2018-12-21T05:58:59.620Z,66.40
2018-12-21T05:59:59.591Z,67.80
2018-12-21T06:00:59.550Z,69.38
2018-12-21T06:01:59.582Z,68.72
2018-12-21T06:02:59.518Z,68.75
2018-12-21T06:03:59.645Z,68.54
2018-12-21T06:05:00.767Z,69.17
2018-12-21T06:05:59.541Z,68.85
2018-12-21T06:06:59.529Z,67.49
2018-12-21T06:08:00.692Z,67.69
2018-12-21T06:08:59.685Z,68.19
2018-12-21T06:09:59.541Z,67.69
2018-12-21T06:10:59.664Z,69.38
2018-12-21T06:11:59.570Z,70.01
2018-12-21T06:12:59.439Z,69.07
2018-12-21T06:14:01.069Z,67.69
2018-12-21T06:14:59.369Z,69.10
2018-12-21T06:15:59.340Z,65.91
2018-12-21T06:16:59.329Z,66.22
2018-12-21T06:17:59.324Z,67.17
2018-12-21T06:18:59.352Z,69.91
2018-12-21T06:19:59.303Z,70.54
2018-12-21T06:20:59.286Z,70.89
2018-12-21T06:21:59.288Z,70.01
2018-12-21T06:22:59.288Z,70.25
2018-12-21T06:23:59.265Z,70.04
2018-12-21T06:24:59.285Z,68.68
2018-12-21T06:25:59.423Z,69.41
2018-12-21T06:26:59.231Z,69.52
2018-12-21T06:27:59.235Z,68.26
2018-12-21T06:29:00.210Z,67.94
2018-12-21T06:29:59.214Z,68.15
2018-12-21T06:31:00.344Z,68.96
2018-12-21T06:31:59.360Z,69.80
2018-12-21T06:32:59.371Z,69.91
2018-12-21T06:33:59.169Z,69.27
2018-12-21T06:34:59.225Z,68.75
2018-12-21T06:36:01.210Z,67.17
2018-12-21T06:36:59.313Z,67.66
2018-12-21T06:37:59.232Z,63.67
2018-12-21T06:39:00.231Z,63.98
2018-12-21T06:40:00.096Z,65.98
2018-12-21T06:40:59.078Z,66.01
2018-12-21T06:41:59.067Z,65.17
2018-12-21T06:42:59.109Z,65.91
2018-12-21T06:43:59.048Z,68.01
2018-12-21T06:44:59.032Z,70.12
2018-12-21T06:45:59.059Z,68.99
2018-12-21T06:46:59.064Z,69.20
2018-12-21T06:47:59.017Z,70.89
2018-12-21T06:48:59.030Z,70.96
2018-12-21T06:49:58.995Z,69.07
2018-12-21T06:50:58.973Z,67.69
2018-12-21T06:51:58.956Z,68.43
2018-12-21T06:52:58.955Z,68.85
2018-12-21T06:53:58.973Z,70.64
2018-12-21T06:54:59.016Z,69.91
2018-12-21T06:55:58.926Z,68.01
2018-12-21T06:56:58.915Z,66.96
2018-12-21T06:57:58.906Z,66.72
2018-12-21T06:58:58.892Z,67.91
2018-12-21T06:59:58.885Z,65.80
2018-12-21T07:01:00.659Z,63.35
2018-12-21T07:01:58.876Z,64.72
2018-12-21T07:02:58.933Z,66.75
2018-12-21T07:03:58.845Z,68.12
2018-12-21T07:04:58.880Z,69.20
2018-12-21T07:05:58.833Z,69.83
2018-12-21T07:06:58.827Z,69.41
2018-12-21T07:07:58.798Z,68.99
2018-12-21T07:08:58.808Z,69.41
2018-12-21T07:09:59.634Z,66.75
2018-12-21T07:10:58.824Z,67.07
2018-12-21T07:11:58.760Z,67.07
2018-12-21T07:12:58.757Z,65.48
2018-12-21T07:13:58.737Z,68.30
2018-12-21T07:14:58.721Z,66.85
2018-12-21T07:15:58.730Z,67.59
2018-12-21T07:16:58.761Z,66.85
2018-12-21T07:17:58.715Z,67.07
2018-12-21T07:18:58.691Z,68.23
2018-12-21T07:19:58.670Z,66.75
2018-12-21T07:20:58.688Z,66.96
2018-12-21T07:21:58.657Z,68.12
2018-12-21T07:22:58.688Z,68.01
2018-12-21T07:23:58.660Z,68.15
2018-12-21T07:24:58.644Z,67.83
2018-12-21T07:25:58.615Z,68.15
2018-12-21T07:26:58.608Z,67.94
2018-12-21T07:27:58.594Z,67.30
2018-12-21T07:28:58.646Z,66.12
2018-12-21T07:29:58.577Z,66.33
2018-12-21T07:30:58.573Z,65.14
2018-12-21T07:31:58.617Z,64.83
2018-12-21T07:32:58.536Z,65.98
2018-12-21T07:33:58.542Z,65.35
2018-12-21T07:34:58.528Z,64.61
2018-12-21T07:35:58.506Z,64.19
2018-12-21T07:36:58.542Z,63.21
2018-12-21T07:37:58.499Z,64.48
2018-12-21T07:38:58.503Z,63.11
2018-12-21T07:39:58.476Z,62.98
2018-12-21T07:40:58.458Z,61.51
2018-12-21T07:41:58.450Z,63.29
2018-12-21T07:42:58.494Z,64.87
2018-12-21T07:43:59.095Z,61.71
2018-12-21T07:44:58.431Z,63.19
2018-12-21T07:45:58.401Z,64.76
2018-12-21T07:46:59.110Z,64.69
2018-12-21T07:47:58.401Z,63.50
2018-12-21T07:48:58.625Z,65.08
2018-12-21T07:49:58.364Z,63.92
2018-12-21T07:50:58.362Z,63.61
2018-12-21T07:51:58.365Z,64.24
2018-12-21T07:52:58.355Z,65.47
2018-12-21T07:53:59.247Z,66.10
2018-12-21T07:54:58.311Z,66.73
2018-12-21T07:55:58.611Z,66.52
2018-12-21T07:56:58.288Z,66.39
2018-12-21T07:57:58.706Z,63.65
2018-12-21T07:58:58.286Z,62.45
2018-12-21T07:59:58.328Z,62.13
2018-12-21T08:00:58.252Z,58.22
2018-12-21T08:01:58.278Z,56.96
2018-12-21T08:02:58.226Z,59.45
2018-12-21T08:03:58.216Z,60.60
2018-12-21T08:04:58.212Z,60.50
2018-12-21T08:05:58.239Z,61.02
2018-12-21T08:06:58.206Z,62.49
2018-12-21T08:07:58.195Z,58.48
2018-12-21T08:08:58.198Z,59.42
2018-12-21T08:10:00.095Z,58.59
2018-12-21T08:10:58.137Z,58.48
2018-12-21T08:11:58.177Z,62.99
2018-12-21T08:12:58.112Z,64.77
2018-12-21T08:13:58.138Z,63.62
2018-12-21T08:14:58.166Z,62.88
2018-12-21T08:15:58.278Z,62.26
2018-12-21T08:16:58.073Z,61.49
2018-12-21T08:17:58.607Z,63.17
2018-12-21T08:18:58.046Z,64.84
2018-12-21T08:19:58.051Z,58.59
2018-12-21T08:20:58.032Z,57.01
2018-12-21T08:21:58.071Z,58.48
2018-12-21T08:22:58.025Z,60.78
2018-12-21T08:23:58.077Z,62.88
2018-12-21T08:24:58.639Z,63.69
2018-12-21T08:25:57.985Z,62.23
2018-12-21T08:26:58.126Z,60.34
2018-12-21T08:27:58.157Z,58.98
2018-12-21T08:28:57.984Z,59.00
2018-12-21T08:29:57.959Z,58.72
2018-12-21T08:30:57.945Z,58.37
2018-12-21T08:31:57.956Z,57.12
2018-12-21T08:32:57.945Z,57.12
2018-12-21T08:33:57.934Z,57.72
2018-12-21T08:34:57.879Z,59.08
2018-12-21T08:35:57.874Z,60.65
2018-12-21T08:36:57.897Z,62.82
2018-12-21T08:37:57.909Z,61.25
2018-12-21T08:38:57.845Z,60.73
2018-12-21T08:39:57.853Z,57.28
2018-12-21T08:40:57.847Z,56.54
2018-12-21T08:41:57.815Z,56.34
2018-12-21T08:42:57.800Z,54.43
2018-12-21T08:43:57.830Z,54.74
2018-12-21T08:44:57.838Z,55.89
2018-12-21T08:45:57.763Z,56.41
2018-12-21T08:46:57.754Z,54.11
2018-12-21T08:47:57.754Z,52.54
2018-12-21T08:48:57.763Z,52.31
2018-12-21T08:49:57.719Z,50.11
2018-12-21T08:50:58.193Z,46.95
2018-12-21T08:51:57.707Z,54.24
2018-12-21T08:52:57.711Z,49.77
2018-12-21T08:53:57.680Z,49.75
2018-12-21T08:54:57.680Z,51.63
2018-12-21T08:55:57.705Z,53.28
2018-12-21T08:56:57.689Z,53.59
2018-12-21T08:57:57.644Z,53.38
2018-12-21T08:58:57.653Z,52.44
2018-12-21T08:59:57.635Z,51.82
2018-12-21T09:00:57.607Z,52.34
2018-12-21T09:01:57.604Z,53.49
2018-12-21T09:02:57.627Z,53.36
2018-12-21T09:03:57.571Z,52.21
2018-12-21T09:04:58.075Z,51.61
2018-12-21T09:05:58.072Z,52.34
2018-12-21T09:06:57.586Z,52.34
2018-12-21T09:07:57.600Z,53.07
2018-12-21T09:08:57.527Z,53.99
2018-12-21T09:09:57.520Z,52.39
2018-12-21T09:10:57.501Z,51.67
2018-12-21T09:11:57.506Z,47.91
2018-12-21T09:12:57.489Z,47.80
2018-12-21T09:13:57.510Z,49.05
2018-12-21T09:14:57.481Z,50.39
2018-12-21T09:15:57.453Z,49.95
2018-12-21T09:16:57.506Z,49.32
2018-12-21T09:17:57.507Z,47.97
2018-12-21T09:18:57.436Z,49.93
2018-12-21T09:19:57.467Z,47.63
2018-12-21T09:20:57.483Z,48.26
2018-12-21T09:21:57.418Z,50.87
2018-12-21T09:22:58.115Z,50.55
2018-12-21T09:24:01.065Z,50.97
2018-12-21T09:24:57.408Z,51.15
2018-12-21T09:25:57.365Z,50.84
2018-12-21T09:26:57.403Z,49.38
2018-12-21T09:27:57.331Z,49.59
2018-12-21T09:28:57.342Z,46.07
2018-12-21T09:29:57.385Z,48.26
2018-12-21T09:30:57.372Z,46.17
2018-12-21T09:32:04.875Z,47.94
2018-12-21T09:32:58.305Z,48.38
2018-12-21T09:33:57.279Z,48.18
2018-12-21T09:34:57.321Z,46.72
2018-12-21T09:35:57.419Z,45.98
2018-12-21T09:36:57.254Z,44.84
2018-12-21T09:37:57.242Z,44.71
2018-12-21T09:38:57.240Z,44.49
2018-12-21T09:39:57.257Z,44.67
2018-12-21T09:40:57.247Z,45.61
2018-12-21T09:41:57.245Z,44.67
2018-12-21T09:42:57.169Z,44.76
2018-12-21T09:43:57.175Z,45.59
2018-12-21T09:44:57.134Z,45.90
2018-12-21T09:45:57.124Z,46.22
2018-12-21T09:46:57.166Z,46.01
2018-12-21T09:47:57.150Z,46.84
2018-12-21T09:48:57.118Z,46.09
2018-12-21T09:49:57.089Z,43.40
2018-12-21T09:50:57.078Z,44.03
2018-12-21T09:51:57.122Z,46.34
2018-12-21T09:52:57.139Z,46.88
2018-12-21T09:53:57.042Z,46.05
2018-12-21T09:54:57.021Z,46.36
2018-12-21T09:55:57.023Z,45.95
2018-12-21T09:56:57.044Z,45.92
2018-12-21T09:57:57.092Z,45.92
2018-12-21T09:58:57.023Z,45.61
2018-12-21T09:59:57.068Z,43.53
2018-12-21T10:00:56.968Z,46.66
2018-12-21T10:01:56.971Z,46.23
2018-12-21T10:02:56.944Z,45.92
2018-12-21T10:03:56.939Z,46.34
2018-12-21T10:04:56.922Z,45.90
2018-12-21T10:05:57.068Z,46.73
2018-12-21T10:06:56.908Z,47.99
2018-12-21T10:07:56.902Z,46.94
2018-12-21T10:08:56.891Z,44.76
2018-12-21T10:09:56.891Z,46.53
2018-12-21T10:10:56.873Z,46.30
2018-12-21T10:11:56.888Z,46.69
2018-12-21T10:12:56.857Z,44.90
2018-12-21T10:13:57.041Z,42.60
2018-12-21T10:14:56.858Z,41.14
2018-12-21T10:15:56.832Z,39.50
2018-12-21T10:16:56.822Z,40.62
2018-12-21T10:17:56.778Z,40.90
2018-12-21T10:18:56.788Z,40.09
2018-12-21T10:19:56.787Z,41.64
2018-12-21T10:20:56.802Z,42.18
2018-12-21T10:21:56.787Z,43.76
2018-12-21T10:22:56.732Z,44.71
2018-12-21T10:23:56.723Z,44.61
2018-12-21T10:24:56.707Z,45.55
2018-12-21T10:25:56.735Z,45.13
2018-12-21T10:26:56.710Z,44.71
2018-12-21T10:27:56.681Z,44.38
2018-12-21T10:28:56.666Z,45.94
2018-12-21T10:29:56.663Z,44.80
2018-12-21T10:30:56.647Z,44.70
2018-12-21T10:31:56.674Z,44.57
2018-12-21T10:32:56.650Z,43.63
2018-12-21T10:33:56.630Z,44.70
2018-12-21T10:34:56.595Z,44.90
2018-12-21T10:35:56.600Z,43.97
2018-12-21T10:36:56.587Z,43.95
2018-12-21T10:37:56.607Z,41.66
2018-12-21T10:38:56.576Z,38.77
2018-12-21T10:39:56.558Z,41.68
2018-12-21T10:40:56.529Z,44.70
2018-12-21T10:41:56.559Z,44.70
2018-12-21T10:42:56.549Z,42.51
2018-12-21T10:43:56.510Z,41.18
2018-12-21T10:44:56.515Z,43.55
2018-12-21T10:45:56.513Z,40.83
2018-12-21T10:46:56.466Z,41.99
2018-12-21T10:47:56.479Z,44.18
2018-12-21T10:48:56.498Z,44.70
2018-12-21T10:49:56.436Z,43.63
2018-12-21T10:50:56.425Z,45.72
2018-12-21T10:51:56.423Z,46.03
2018-12-21T10:52:56.448Z,44.13
2018-12-21T10:53:56.398Z,44.55
2018-12-21T10:54:56.443Z,43.95
2018-12-21T10:55:56.371Z,46.11
2018-12-21T10:56:56.359Z,43.51
2018-12-21T10:57:56.356Z,44.45
2018-12-21T10:58:56.372Z,46.55
2018-12-21T10:59:56.345Z,46.21
2018-12-21T11:00:56.386Z,46.71
2018-12-21T11:01:56.350Z,45.47
2018-12-21T11:02:56.301Z,43.99
2018-12-21T11:03:56.285Z,43.06
2018-12-21T11:04:56.272Z,43.49
2018-12-21T11:05:56.286Z,40.48
2018-12-21T11:07:00.538Z,40.48
2018-12-21T11:07:56.294Z,40.47
2018-12-21T11:08:56.236Z,43.06
2018-12-21T11:09:56.231Z,40.67
2018-12-21T11:10:56.233Z,42.56
2018-12-21T11:11:56.215Z,43.06
2018-12-21T11:12:56.310Z,40.99
2018-12-21T11:13:56.194Z,41.71
2018-12-21T11:14:56.179Z,42.33
2018-12-21T11:15:56.195Z,40.88
2018-12-21T11:16:56.148Z,40.44
2018-12-21T11:17:56.170Z,38.68
2018-12-21T11:18:56.144Z,40.23
2018-12-21T11:19:56.115Z,41.17
2018-12-21T11:20:56.117Z,41.69
2018-12-21T11:21:56.094Z,42.41
2018-12-21T11:22:56.121Z,41.15
2018-12-21T11:23:56.082Z,41.27
2018-12-21T11:24:56.068Z,42.72
2018-12-21T11:25:56.096Z,43.24
2018-12-21T11:26:56.095Z,39.53
2018-12-21T11:27:56.020Z,38.81
2018-12-21T11:28:56.016Z,43.16
2018-12-21T11:29:56.008Z,42.46
2018-12-21T11:30:56.001Z,43.48
2018-12-21T11:31:56.016Z,43.37
2018-12-21T11:32:56.000Z,43.58
2018-12-21T11:33:55.997Z,42.23
2018-12-21T11:34:55.981Z,41.48
2018-12-21T11:35:55.978Z,38.79
2018-12-21T11:36:56.018Z,37.54
2018-12-21T11:37:56.139Z,39.41
2018-12-21T11:38:55.919Z,38.89
2018-12-21T11:39:55.901Z,38.25
2018-12-21T11:40:55.912Z,37.21
2018-12-21T11:41:55.876Z,39.50
2018-12-21T11:42:55.923Z,40.42
2018-12-21T11:43:55.875Z,36.80
2018-12-21T11:44:55.871Z,38.25
2018-12-21T11:45:55.839Z,36.99
2018-12-21T11:46:55.992Z,37.30
2018-12-21T11:47:55.836Z,36.15
2018-12-21T11:48:55.842Z,36.99
2018-12-21T11:49:55.796Z,37.73
2018-12-21T11:50:55.799Z,37.13
2018-12-21T11:51:55.788Z,39.60
2018-12-21T11:52:55.769Z,41.06
2018-12-21T11:53:55.808Z,40.94
2018-12-21T11:54:55.734Z,40.73
2018-12-21T11:55:55.748Z,41.58
2018-12-21T11:56:55.751Z,41.58
2018-12-21T11:57:55.841Z,40.84
2018-12-21T11:58:55.716Z,41.36
2018-12-21T11:59:55.730Z,40.42
2018-12-21T12:00:56.005Z,40.11
2018-12-21T12:01:55.657Z,40.75
2018-12-21T12:02:56.078Z,42.02
2018-12-21T12:03:55.642Z,41.30
2018-12-21T12:04:55.648Z,42.10
2018-12-21T12:05:55.655Z,39.92
2018-12-21T12:06:55.623Z,39.00
2018-12-21T12:07:55.597Z,40.03
2018-12-21T12:08:55.607Z,42.83
2018-12-21T12:09:55.602Z,44.59
2018-12-21T12:10:55.574Z,43.54
2018-12-21T12:11:55.592Z,41.38
2018-12-21T12:12:55.569Z,42.50
2018-12-21T12:13:55.529Z,41.36
2018-12-21T12:14:55.523Z,41.67
2018-12-21T12:15:55.516Z,41.36
2018-12-21T12:16:55.521Z,41.27
2018-12-21T12:17:55.533Z,38.46
2018-12-21T12:18:55.493Z,37.84
2018-12-21T12:19:55.477Z,38.77
2018-12-21T12:20:55.460Z,40.42
2018-12-21T12:21:55.440Z,41.05
2018-12-21T12:22:55.473Z,37.85
2018-12-21T12:23:55.437Z,37.75
2018-12-21T12:24:55.504Z,41.27
2018-12-21T12:25:55.422Z,40.55
2018-12-21T12:26:55.392Z,40.65
2018-12-21T12:27:55.436Z,41.89
2018-12-21T12:28:55.375Z,40.86
2018-12-21T12:29:55.380Z,43.35
2018-12-21T12:30:55.561Z,41.06
2018-12-21T12:31:55.397Z,41.61
2018-12-21T12:32:55.335Z,41.61
2018-12-21T12:33:55.319Z,40.88
2018-12-21T12:34:55.498Z,40.47
2018-12-21T12:35:55.339Z,40.99
2018-12-21T12:36:55.294Z,43.45
2018-12-21T12:37:55.333Z,44.59
2018-12-21T12:38:55.280Z,43.97
2018-12-21T12:39:55.268Z,42.23
2018-12-21T12:40:55.303Z,42.65
2018-12-21T12:41:55.239Z,43.35
2018-12-21T12:42:55.217Z,42.93
2018-12-21T12:43:55.225Z,40.84
2018-12-21T12:44:55.216Z,40.84
2018-12-21T12:45:55.215Z,39.08
2018-12-21T12:46:55.236Z,39.39
2018-12-21T12:47:55.175Z,38.85
2018-12-21T12:48:55.174Z,38.85
2018-12-21T12:49:55.157Z,41.03
2018-12-21T12:50:55.161Z,41.44
2018-12-21T12:51:55.166Z,41.63